KAVX Airport (Catalina) Information

FAA: AVX - ICAO: KAVX

KAVX Airport Location

State California
County Los Angeles
City Avalon
KAVX Airport is 6 miles northwest of Avalon, CA.
Latitude 33-24-17.9900N
Longitude 118-24-56.7700W
Elevation 1,602ft

KAVX Airport METARs

METAR KAVX 302251Z AUTO 24011KT 10SM CLR 18/11 A2986 RMK AO2 SLP097 T01780111
Altimeter 29.86"
Temperature 17.8°C (64.0°F)
Wind 240° at 11KT
Clouds Skies are clear.
Visibility 10.0mi
Time observed: 2022-09-30T22:51:00Z

KAVX Airport Details

Status Operational
Activation June 1941
Ownership Private
Usage Public
Chart LOS ANGELES
ATC on-site No
Beacon schedule N/A
Beacon color N/A

KAVX Airport Contacts

Owner SANTA CATALINA IS CONSERVANCY
Owner address BOX 2739, AVALON, CA 90704
Owner phone 310-510-2595
Manager MS. BERNIE SCHROEDER
Manager address 13626 NEW AIRPORT ROAD, AUBURN, CA 95602
Manager phone 530-386-4211

KAVX Airport (Catalina) Radio Frequencies

KAVX (Airport) Radio Frequencies

UNICOM 122.7
Common traffic advisory frequency (CTAF) 122.7